sensor_id;sensor_type;location;lat;lon;timestamp;pressure;altitude;pressure_sealevel;temperature;humidity
36502;BME280;25393;46.108;3.390;2023-03-13T00:01:29;97793.25;;;11.80;100.00
36502;BME280;25393;46.108;3.390;2023-03-13T00:03:55;97787.78;;;11.82;100.00
36502;BME280;25393;46.108;3.390;2023-03-13T00:06:25;97782.00;;;11.78;100.00
36502;BME280;25393;46.108;3.390;2023-03-13T00:08:53;97786.50;;;11.78;100.00
36502;BME280;25393;46.108;3.390;2023-03-13T00:11:23;97791.13;;;11.76;100.00
36502;BME280;25393;46.108;3.390;2023-03-13T00:13:56;97785.38;;;11.72;100.00
36502;BME280;25393;46.108;3.390;2023-03-13T00:16:23;97775.97;;;11.84;100.00
36502;BME280;25393;46.108;3.390;2023-03-13T00:18:54;97777.59;;;11.71;100.00
36502;BME280;25393;46.108;3.390;2023-03-13T00:21:26;97782.78;;;11.64;100.00
36502;BME280;25393;46.108;3.390;2023-03-13T00:23:53;97767.09;;;11.54;100.00
36502;BME280;25393;46.108;3.390;2023-03-13T00:26:23;97784.72;;;11.70;100.00
36502;BME280;25393;46.108;3.390;2023-03-13T00:28:53;97767.00;;;11.71;100.00
36502;BME280;25393;46.108;3.390;2023-03-13T00:31:25;97775.09;;;11.69;100.00
36502;BME280;25393;46.108;3.390;2023-03-13T00:34:00;97761.31;;;11.74;100.00
36502;BME280;25393;46.108;3.390;2023-03-13T00:36:30;97775.56;;;11.73;100.00
36502;BME280;25393;46.108;3.390;2023-03-13T00:38:58;97769.50;;;11.49;100.00
36502;BME280;25393;46.108;3.390;2023-03-13T00:41:27;97743.94;;;11.48;100.00
36502;BME280;25393;46.108;3.390;2023-03-13T00:43:54;97747.53;;;11.56;100.00
36502;BME280;25393;46.108;3.390;2023-03-13T00:46:24;97739.56;;;11.56;100.00
36502;BME280;25393;46.108;3.390;2023-03-13T00:48:55;97754.06;;;11.68;100.00
36502;BME280;25393;46.108;3.390;2023-03-13T00:51:26;97752.22;;;11.53;100.00
36502;BME280;25393;46.108;3.390;2023-03-13T00:53:57;97756.59;;;11.61;100.00
36502;BME280;25393;46.108;3.390;2023-03-13T00:56:27;97751.09;;;11.63;100.00
36502;BME280;25393;46.108;3.390;2023-03-13T00:58:54;97762.53;;;11.63;100.00
36502;BME280;25393;46.108;3.390;2023-03-13T01:01:22;97755.69;;;11.69;100.00
36502;BME280;25393;46.108;3.390;2023-03-13T01:03:58;97750.56;;;11.67;100.00
36502;BME280;25393;46.108;3.390;2023-03-13T01:06:27;97757.03;;;11.65;100.00
36502;BME280;25393;46.108;3.390;2023-03-13T01:08:57;97752.03;;;11.70;100.00
36502;BME280;25393;46.108;3.390;2023-03-13T01:11:27;97722.72;;;11.63;100.00
36502;BME280;25393;46.108;3.390;2023-03-13T01:13:56;97737.41;;;11.88;100.00
36502;BME280;25393;46.108;3.390;2023-03-13T01:16:28;97706.44;;;11.66;100.00
36502;BME280;25393;46.108;3.390;2023-03-13T01:18:58;97719.44;;;11.76;100.00
36502;BME280;25393;46.108;3.390;2023-03-13T01:21:25;97712.97;;;11.78;100.00
36502;BME280;25393;46.108;3.390;2023-03-13T01:23:52;97727.03;;;11.79;100.00
36502;BME280;25393;46.108;3.390;2023-03-13T01:26:22;97704.63;;;11.81;100.00
36502;BME280;25393;46.108;3.390;2023-03-13T01:28:51;97696.00;;;11.79;100.00
36502;BME280;25393;46.108;3.390;2023-03-13T01:31:24;97703.50;;;11.90;100.00
36502;BME280;25393;46.108;3.390;2023-03-13T01:33:58;97697.22;;;11.77;100.00
36502;BME280;25393;46.108;3.390;2023-03-13T01:36:28;97701.91;;;11.75;100.00
36502;BME280;25393;46.108;3.390;2023-03-13T01:38:59;97701.06;;;11.74;100.00
36502;BME280;25393;46.108;3.390;2023-03-13T01:41:28;97702.91;;;11.74;100.00
36502;BME280;25393;46.108;3.390;2023-03-13T01:43:57;97689.66;;;11.51;100.00
36502;BME280;25393;46.108;3.390;2023-03-13T01:46:28;97686.31;;;11.57;100.00
36502;BME280;25393;46.108;3.390;2023-03-13T01:49:17;97674.78;;;11.50;100.00
36502;BME280;25393;46.108;3.390;2023-03-13T01:51:54;97685.13;;;11.60;100.00
36502;BME280;25393;46.108;3.390;2023-03-13T01:54:35;97654.34;;;11.50;100.00
36502;BME280;25393;46.108;3.390;2023-03-13T01:57:15;97681.63;;;11.59;100.00
36502;BME280;25393;46.108;3.390;2023-03-13T01:59:46;97660.03;;;11.47;100.00
36502;BME280;25393;46.108;3.390;2023-03-13T02:02:14;97669.47;;;11.50;100.00
36502;BME280;25393;46.108;3.390;2023-03-13T02:04:44;97676.84;;;11.54;100.00
36502;BME280;25393;46.108;3.390;2023-03-13T02:07:18;97678.34;;;11.57;100.00
36502;BME280;25393;46.108;3.390;2023-03-13T02:09:48;97667.34;;;11.45;100.00
36502;BME280;25393;46.108;3.390;2023-03-13T02:12:23;97663.03;;;11.59;100.00
36502;BME280;25393;46.108;3.390;2023-03-13T02:14:54;97671.56;;;11.69;100.00
36502;BME280;25393;46.108;3.390;2023-03-13T02:17:24;97663.66;;;11.61;100.00
36502;BME280;25393;46.108;3.390;2023-03-13T02:19:54;97642.03;;;11.43;100.00
36502;BME280;25393;46.108;3.390;2023-03-13T02:27:46;97657.47;;;11.39;100.00
36502;BME280;25393;46.108;3.390;2023-03-13T02:30:13;97646.50;;;11.42;100.00
36502;BME280;25393;46.108;3.390;2023-03-13T02:32:40;97612.28;;;11.33;100.00
36502;BME280;25393;46.108;3.390;2023-03-13T02:35:12;97644.84;;;11.41;100.00
36502;BME280;25393;46.108;3.390;2023-03-13T02:37:41;97651.97;;;11.41;100.00
36502;BME280;25393;46.108;3.390;2023-03-13T02:40:11;97638.63;;;11.49;100.00
36502;BME280;25393;46.108;3.390;2023-03-13T02:42:41;97630.00;;;11.47;100.00
36502;BME280;25393;46.108;3.390;2023-03-13T02:45:09;97628.19;;;11.47;100.00
36502;BME280;25393;46.108;3.390;2023-03-13T02:47:36;97627.19;;;11.48;100.00
36502;BME280;25393;46.108;3.390;2023-03-13T02:50:02;97620.50;;;11.52;100.00
36502;BME280;25393;46.108;3.390;2023-03-13T02:52:35;97597.25;;;11.40;100.00
36502;BME280;25393;46.108;3.390;2023-03-13T02:55:08;97599.78;;;11.63;100.00
36502;BME280;25393;46.108;3.390;2023-03-13T02:57:36;97598.88;;;11.56;100.00
36502;BME280;25393;46.108;3.390;2023-03-13T03:00:05;97601.53;;;11.56;100.00
36502;BME280;25393;46.108;3.390;2023-03-13T03:02:32;97589.84;;;11.50;100.00
36502;BME280;25393;46.108;3.390;2023-03-13T03:05:02;97597.34;;;11.46;100.00
36502;BME280;25393;46.108;3.390;2023-03-13T03:07:28;97591.16;;;11.39;100.00
36502;BME280;25393;46.108;3.390;2023-03-13T03:10:01;97586.47;;;11.41;100.00
36502;BME280;25393;46.108;3.390;2023-03-13T03:12:27;97602.00;;;11.44;100.00
36502;BME280;25393;46.108;3.390;2023-03-13T03:14:54;97584.72;;;11.48;100.00
36502;BME280;25393;46.108;3.390;2023-03-13T03:17:20;97561.50;;;11.36;100.00
36502;BME280;25393;46.108;3.390;2023-03-13T03:19:47;97586.38;;;11.49;100.00
36502;BME280;25393;46.108;3.390;2023-03-13T03:22:13;97565.63;;;11.38;100.00
36502;BME280;25393;46.108;3.390;2023-03-13T03:24:40;97567.13;;;11.47;100.00
36502;BME280;25393;46.108;3.390;2023-03-13T03:27:06;97559.47;;;11.38;100.00
36502;BME280;25393;46.108;3.390;2023-03-13T03:29:33;97553.91;;;11.33;100.00
36502;BME280;25393;46.108;3.390;2023-03-13T03:31:59;97551.88;;;11.35;100.00
36502;BME280;25393;46.108;3.390;2023-03-13T03:34:28;97580.34;;;11.41;100.00
36502;BME280;25393;46.108;3.390;2023-03-13T03:36:54;97567.97;;;11.33;100.00
36502;BME280;25393;46.108;3.390;2023-03-13T03:39:21;97562.13;;;11.52;100.00
36502;BME280;25393;46.108;3.390;2023-03-13T03:41:48;97575.75;;;11.49;100.00
36502;BME280;25393;46.108;3.390;2023-03-13T03:44:14;97577.72;;;11.62;100.00
36502;BME280;25393;46.108;3.390;2023-03-13T03:46:41;97554.41;;;11.58;100.00
36502;BME280;25393;46.108;3.390;2023-03-13T03:49:07;97512.88;;;11.50;100.00
36502;BME280;25393;46.108;3.390;2023-03-13T03:51:34;97554.50;;;11.64;100.00
36502;BME280;25393;46.108;3.390;2023-03-13T03:54:00;97531.56;;;11.42;100.00
36502;BME280;25393;46.108;3.390;2023-03-13T03:56:29;97530.06;;;11.54;100.00
36502;BME280;25393;46.108;3.390;2023-03-13T03:58:55;97532.88;;;11.67;100.00
36502;BME280;25393;46.108;3.390;2023-03-13T04:01:22;97522.03;;;11.47;100.00
36502;BME280;25393;46.108;3.390;2023-03-13T04:03:48;97531.38;;;11.43;100.00
36502;BME280;25393;46.108;3.390;2023-03-13T04:06:15;97516.94;;;11.31;100.00
36502;BME280;25393;46.108;3.390;2023-03-13T04:08:41;97530.03;;;11.33;100.00
36502;BME280;25393;46.108;3.390;2023-03-13T04:11:08;97529.47;;;11.37;100.00
36502;BME280;25393;46.108;3.390;2023-03-13T04:13:34;97527.78;;;11.51;100.00
36502;BME280;25393;46.108;3.390;2023-03-13T04:16:06;97522.22;;;11.46;100.00
36502;BME280;25393;46.108;3.390;2023-03-13T04:18:36;97516.50;;;11.28;100.00
36502;BME280;25393;46.108;3.390;2023-03-13T04:21:06;97523.84;;;11.26;100.00
36502;BME280;25393;46.108;3.390;2023-03-13T04:23:33;97529.84;;;11.20;100.00
36502;BME280;25393;46.108;3.390;2023-03-13T04:26:02;97531.22;;;11.30;100.00
36502;BME280;25393;46.108;3.390;2023-03-13T04:28:31;97550.22;;;11.34;100.00
36502;BME280;25393;46.108;3.390;2023-03-13T04:30:57;97538.00;;;11.33;100.00
36502;BME280;25393;46.108;3.390;2023-03-13T04:33:24;97553.72;;;11.34;100.00
36502;BME280;25393;46.108;3.390;2023-03-13T04:35:50;97539.75;;;11.26;100.00
36502;BME280;25393;46.108;3.390;2023-03-13T04:38:17;97519.00;;;11.00;100.00
36502;BME280;25393;46.108;3.390;2023-03-13T04:40:45;97524.91;;;11.31;100.00
36502;BME280;25393;46.108;3.390;2023-03-13T04:43:12;97530.75;;;11.27;100.00
36502;BME280;25393;46.108;3.390;2023-03-13T04:45:38;97515.81;;;11.05;100.00
36502;BME280;25393;46.108;3.390;2023-03-13T04:48:07;97516.78;;;11.18;100.00
36502;BME280;25393;46.108;3.390;2023-03-13T04:50:34;97509.53;;;11.27;100.00
36502;BME280;25393;46.108;3.390;2023-03-13T04:53:03;97509.38;;;11.14;100.00
36502;BME280;25393;46.108;3.390;2023-03-13T04:55:30;97494.94;;;11.01;100.00
36502;BME280;25393;46.108;3.390;2023-03-13T04:57:56;97495.69;;;10.95;100.00
36502;BME280;25393;46.108;3.390;2023-03-13T05:00:23;97488.63;;;11.17;100.00
36502;BME280;25393;46.108;3.390;2023-03-13T05:02:49;97474.31;;;10.82;100.00
36502;BME280;25393;46.108;3.390;2023-03-13T05:05:16;97482.88;;;10.99;100.00
36502;BME280;25393;46.108;3.390;2023-03-13T05:07:43;97481.03;;;11.14;100.00
36502;BME280;25393;46.108;3.390;2023-03-13T05:10:09;97476.88;;;10.90;100.00
36502;BME280;25393;46.108;3.390;2023-03-13T05:12:39;97474.13;;;10.69;100.00
36502;BME280;25393;46.108;3.390;2023-03-13T05:15:09;97505.75;;;10.85;100.00
36502;BME280;25393;46.108;3.390;2023-03-13T05:17:35;97489.63;;;11.01;100.00
36502;BME280;25393;46.108;3.390;2023-03-13T05:20:05;97489.81;;;11.00;100.00
36502;BME280;25393;46.108;3.390;2023-03-13T05:22:40;97482.41;;;10.95;100.00
36502;BME280;25393;46.108;3.390;2023-03-13T05:25:08;97453.34;;;10.87;100.00
36502;BME280;25393;46.108;3.390;2023-03-13T05:27:35;97442.09;;;11.00;100.00
36502;BME280;25393;46.108;3.390;2023-03-13T05:30:02;97456.50;;;11.12;100.00
36502;BME280;25393;46.108;3.390;2023-03-13T05:32:29;97430.28;;;11.02;100.00
36502;BME280;25393;46.108;3.390;2023-03-13T05:34:56;97432.88;;;10.96;100.00
36502;BME280;25393;46.108;3.390;2023-03-13T05:37:22;97415.69;;;10.92;100.00
36502;BME280;25393;46.108;3.390;2023-03-13T05:39:49;97439.94;;;11.25;100.00
36502;BME280;25393;46.108;3.390;2023-03-13T05:42:15;97448.91;;;11.24;100.00
36502;BME280;25393;46.108;3.390;2023-03-13T05:44:42;97444.91;;;11.13;100.00
36502;BME280;25393;46.108;3.390;2023-03-13T05:47:11;97443.53;;;11.17;100.00
36502;BME280;25393;46.108;3.390;2023-03-13T05:49:40;97439.28;;;11.23;100.00
36502;BME280;25393;46.108;3.390;2023-03-13T05:52:07;97435.97;;;11.35;100.00
36502;BME280;25393;46.108;3.390;2023-03-13T05:54:36;97442.06;;;11.15;100.00
36502;BME280;25393;46.108;3.390;2023-03-13T05:57:06;97417.75;;;11.11;100.00
36502;BME280;25393;46.108;3.390;2023-03-13T05:59:33;97421.81;;;11.28;100.00
36502;BME280;25393;46.108;3.390;2023-03-13T06:02:00;97402.47;;;11.13;100.00
36502;BME280;25393;46.108;3.390;2023-03-13T06:04:27;97418.94;;;11.09;100.00
36502;BME280;25393;46.108;3.390;2023-03-13T06:06:54;97400.75;;;11.06;100.00
36502;BME280;25393;46.108;3.390;2023-03-13T06:09:21;97403.34;;;11.20;100.00
36502;BME280;25393;46.108;3.390;2023-03-13T06:11:47;97397.47;;;11.03;100.00
36502;BME280;25393;46.108;3.390;2023-03-13T06:14:14;97415.50;;;10.93;100.00
36502;BME280;25393;46.108;3.390;2023-03-13T06:16:40;97406.81;;;10.85;100.00
36502;BME280;25393;46.108;3.390;2023-03-13T06:19:10;97393.78;;;10.83;100.00
36502;BME280;25393;46.108;3.390;2023-03-13T06:21:40;97380.63;;;10.75;100.00
36502;BME280;25393;46.108;3.390;2023-03-13T06:24:10;97379.34;;;10.71;100.00
36502;BME280;25393;46.108;3.390;2023-03-13T06:26:37;97403.09;;;10.79;100.00
36502;BME280;25393;46.108;3.390;2023-03-13T06:29:06;97398.88;;;10.85;100.00
36502;BME280;25393;46.108;3.390;2023-03-13T06:31:34;97400.03;;;10.97;100.00
36502;BME280;25393;46.108;3.390;2023-03-13T06:34:01;97395.75;;;10.81;100.00
36502;BME280;25393;46.108;3.390;2023-03-13T06:36:28;97414.13;;;10.97;100.00
36502;BME280;25393;46.108;3.390;2023-03-13T06:38:54;97416.84;;;11.04;100.00
36502;BME280;25393;46.108;3.390;2023-03-13T06:41:24;97390.06;;;10.99;100.00
36502;BME280;25393;46.108;3.390;2023-03-13T06:43:50;97371.63;;;11.12;100.00
36502;BME280;25393;46.108;3.390;2023-03-13T06:46:19;97354.47;;;11.08;100.00
36502;BME280;25393;46.108;3.390;2023-03-13T06:48:48;97364.09;;;10.94;100.00
36502;BME280;25393;46.108;3.390;2023-03-13T06:51:17;97357.44;;;10.84;100.00
36502;BME280;25393;46.108;3.390;2023-03-13T06:53:44;97367.13;;;10.91;100.00
36502;BME280;25393;46.108;3.390;2023-03-13T06:56:11;97362.00;;;11.05;100.00
36502;BME280;25393;46.108;3.390;2023-03-13T06:58:41;97369.38;;;11.09;100.00
36502;BME280;25393;46.108;3.390;2023-03-13T07:01:10;97332.56;;;10.99;100.00
36502;BME280;25393;46.108;3.390;2023-03-13T07:03:38;97329.91;;;11.21;100.00
36502;BME280;25393;46.108;3.390;2023-03-13T07:06:10;97334.50;;;11.33;100.00
36502;BME280;25393;46.108;3.390;2023-03-13T07:08:41;97329.19;;;11.33;100.00
36502;BME280;25393;46.108;3.390;2023-03-13T07:11:11;97332.59;;;11.48;100.00
36502;BME280;25393;46.108;3.390;2023-03-13T07:13:41;97326.78;;;11.60;100.00
36502;BME280;25393;46.108;3.390;2023-03-13T07:16:11;97328.63;;;11.59;100.00
36502;BME280;25393;46.108;3.390;2023-03-13T07:18:41;97312.50;;;11.61;100.00
36502;BME280;25393;46.108;3.390;2023-03-13T07:21:10;97321.22;;;11.76;100.00
36502;BME280;25393;46.108;3.390;2023-03-13T07:23:39;97327.81;;;11.86;100.00
36502;BME280;25393;46.108;3.390;2023-03-13T07:26:13;97306.78;;;11.85;100.00
36502;BME280;25393;46.108;3.390;2023-03-13T07:28:41;97303.16;;;11.92;100.00
36502;BME280;25393;46.108;3.390;2023-03-13T07:31:12;97313.28;;;12.10;100.00
36502;BME280;25393;46.108;3.390;2023-03-13T07:33:43;97309.50;;;12.32;100.00
36502;BME280;25393;46.108;3.390;2023-03-13T07:36:12;97309.59;;;12.11;100.00
36502;BME280;25393;46.108;3.390;2023-03-13T07:38:42;97306.13;;;12.11;100.00
36502;BME280;25393;46.108;3.390;2023-03-13T07:41:11;97306.38;;;12.16;100.00
36502;BME280;25393;46.108;3.390;2023-03-13T07:43:41;97301.28;;;12.21;100.00
36502;BME280;25393;46.108;3.390;2023-03-13T07:46:15;97304.97;;;12.20;100.00
36502;BME280;25393;46.108;3.390;2023-03-13T07:48:46;97297.69;;;12.35;100.00
36502;BME280;25393;46.108;3.390;2023-03-13T07:51:16;97295.47;;;12.38;100.00
36502;BME280;25393;46.108;3.390;2023-03-13T07:53:43;97292.78;;;12.38;100.00
36502;BME280;25393;46.108;3.390;2023-03-13T07:56:12;97295.47;;;12.38;100.00
36502;BME280;25393;46.108;3.390;2023-03-13T07:58:40;97284.03;;;12.44;100.00
36502;BME280;25393;46.108;3.390;2023-03-13T08:01:18;97288.09;;;13.08;100.00
36502;BME280;25393;46.108;3.390;2023-03-13T08:03:45;97275.66;;;13.67;98.22
36502;BME280;25393;46.108;3.390;2023-03-13T08:06:18;97280.00;;;14.32;93.01
36502;BME280;25393;46.108;3.390;2023-03-13T08:08:45;97284.28;;;14.46;90.64
36502;BME280;25393;46.108;3.390;2023-03-13T08:11:15;97275.41;;;14.66;90.10
36502;BME280;25393;46.108;3.390;2023-03-13T08:13:42;97266.44;;;14.91;88.84
36502;BME280;25393;46.108;3.390;2023-03-13T08:16:14;97274.72;;;15.39;85.07
36502;BME280;25393;46.108;3.390;2023-03-13T08:18:43;97261.84;;;16.04;82.13
36502;BME280;25393;46.108;3.390;2023-03-13T08:21:12;97262.44;;;16.24;79.07
36502;BME280;25393;46.108;3.390;2023-03-13T08:23:42;97259.53;;;16.26;79.39
36502;BME280;25393;46.108;3.390;2023-03-13T08:26:17;97251.66;;;16.49;78.21
36502;BME280;25393;46.108;3.390;2023-03-13T08:28:46;97249.75;;;16.86;76.62
36502;BME280;25393;46.108;3.390;2023-03-13T08:33:41;97254.75;;;17.88;70.55
36502;BME280;25393;46.108;3.390;2023-03-13T08:36:27;97244.84;;;17.77;70.43
36502;BME280;25393;46.108;3.390;2023-03-13T08:38:56;97244.94;;;17.71;70.22
36502;BME280;25393;46.108;3.390;2023-03-13T08:41:26;97255.91;;;17.58;70.42
36502;BME280;25393;46.108;3.390;2023-03-13T08:43:56;97248.75;;;17.40;71.67
36502;BME280;25393;46.108;3.390;2023-03-13T08:46:23;97258.81;;;17.15;72.40
36502;BME280;25393;46.108;3.390;2023-03-13T08:48:52;97252.69;;;16.96;72.86
36502;BME280;25393;46.108;3.390;2023-03-13T08:51:21;97262.28;;;16.74;74.90
36502;BME280;25393;46.108;3.390;2023-03-13T08:53:48;97252.56;;;16.61;75.46
36502;BME280;25393;46.108;3.390;2023-03-13T08:56:18;97242.28;;;16.40;76.12
36502;BME280;25393;46.108;3.390;2023-03-13T08:58:51;97252.03;;;16.16;77.82
36502;BME280;25393;46.108;3.390;2023-03-13T09:01:20;97240.03;;;16.07;78.30
36502;BME280;25393;46.108;3.390;2023-03-13T09:03:47;97237.44;;;16.01;78.76
36502;BME280;25393;46.108;3.390;2023-03-13T09:06:15;97232.00;;;15.89;79.61
36502;BME280;25393;46.108;3.390;2023-03-13T09:08:41;97233.97;;;16.12;79.41
36502;BME280;25393;46.108;3.390;2023-03-13T09:11:19;97230.72;;;16.46;77.07
36502;BME280;25393;46.108;3.390;2023-03-13T09:13:48;97221.31;;;16.55;76.47
36502;BME280;25393;46.108;3.390;2023-03-13T09:16:20;97228.53;;;17.03;74.61
36502;BME280;25393;46.108;3.390;2023-03-13T09:18:48;97222.88;;;17.45;71.69
36502;BME280;25393;46.108;3.390;2023-03-13T09:21:18;97211.78;;;18.23;70.51
36502;BME280;25393;46.108;3.390;2023-03-13T09:23:45;97197.53;;;19.36;65.63
36502;BME280;25393;46.108;3.390;2023-03-13T09:26:13;97193.41;;;20.38;62.55
36502;BME280;25393;46.108;3.390;2023-03-13T09:28:40;97181.09;;;21.23;58.09
36502;BME280;25393;46.108;3.390;2023-03-13T09:31:14;97168.88;;;21.89;55.98
36502;BME280;25393;46.108;3.390;2023-03-13T09:33:43;97175.31;;;22.25;54.58
36502;BME280;25393;46.108;3.390;2023-03-13T09:36:11;97177.59;;;22.63;53.49
36502;BME280;25393;46.108;3.390;2023-03-13T09:38:40;97178.22;;;22.85;52.95
36502;BME280;25393;46.108;3.390;2023-03-13T09:46:38;97138.81;;;23.10;49.58
36502;BME280;25393;46.108;3.390;2023-03-13T09:49:28;97164.19;;;22.99;51.56
36502;BME280;25393;46.108;3.390;2023-03-13T09:52:25;97153.97;;;23.51;49.88
36502;BME280;25393;46.108;3.390;2023-03-13T09:55:03;97126.63;;;23.58;50.56
36502;BME280;25393;46.108;3.390;2023-03-13T10:00:19;97116.91;;;23.26;49.87
36502;BME280;25393;46.108;3.390;2023-03-13T10:02:59;97109.63;;;23.17;50.65
36502;BME280;25393;46.108;3.390;2023-03-13T10:05:29;97101.44;;;22.56;50.75
36502;BME280;25393;46.108;3.390;2023-03-13T10:11:26;97094.75;;;22.84;50.93
36502;BME280;25393;46.108;3.390;2023-03-13T10:14:01;97083.41;;;22.87;51.06
36502;BME280;25393;46.108;3.390;2023-03-13T10:19:27;97069.25;;;23.81;48.22
36502;BME280;25393;46.108;3.390;2023-03-13T10:22:01;97070.91;;;23.62;48.82
36502;BME280;25393;46.108;3.390;2023-03-13T10:24:36;97057.56;;;23.91;48.44
36502;BME280;25393;46.108;3.390;2023-03-13T10:27:08;97043.34;;;24.29;49.03
36502;BME280;25393;46.108;3.390;2023-03-13T10:29:44;97053.13;;;24.64;47.97
36502;BME280;25393;46.108;3.390;2023-03-13T10:32:15;97044.22;;;24.97;45.65
36502;BME280;25393;46.108;3.390;2023-03-13T10:34:57;97024.47;;;24.92;46.90
36502;BME280;25393;46.108;3.390;2023-03-13T10:37:39;97020.19;;;24.91;47.60
36502;BME280;25393;46.108;3.390;2023-03-13T10:40:24;97024.78;;;24.90;46.12
36502;BME280;25393;46.108;3.390;2023-03-13T10:42:58;97016.31;;;25.49;45.78
36502;BME280;25393;46.108;3.390;2023-03-13T10:45:26;96985.13;;;25.75;44.40
36502;BME280;25393;46.108;3.390;2023-03-13T10:48:00;96999.00;;;26.35;43.82
36502;BME280;25393;46.108;3.390;2023-03-13T10:50:32;96992.38;;;26.22;43.82
36502;BME280;25393;46.108;3.390;2023-03-13T10:53:23;96991.97;;;25.92;43.41
36502;BME280;25393;46.108;3.390;2023-03-13T10:55:52;96966.25;;;25.65;43.46
36502;BME280;25393;46.108;3.390;2023-03-13T10:58:26;96979.63;;;26.23;44.08
36502;BME280;25393;46.108;3.390;2023-03-13T11:03:49;96972.00;;;26.01;44.22
36502;BME280;25393;46.108;3.390;2023-03-13T11:06:31;96967.00;;;25.90;44.25
36502;BME280;25393;46.108;3.390;2023-03-13T11:09:02;96961.63;;;25.66;43.45
36502;BME280;25393;46.108;3.390;2023-03-13T11:11:29;96943.03;;;25.30;44.10
36502;BME280;25393;46.108;3.390;2023-03-13T11:14:07;96945.88;;;25.20;44.14
36502;BME280;25393;46.108;3.390;2023-03-13T11:16:46;96918.50;;;25.41;44.56
36502;BME280;25393;46.108;3.390;2023-03-13T11:19:23;96931.94;;;25.93;42.84
36502;BME280;25393;46.108;3.390;2023-03-13T11:30:44;96880.63;;;27.98;38.89
36502;BME280;25393;46.108;3.390;2023-03-13T11:33:19;96893.75;;;28.09;37.54
36502;BME280;25393;46.108;3.390;2023-03-13T11:36:01;96869.47;;;27.99;38.01
36502;BME280;25393;46.108;3.390;2023-03-13T11:44:30;96856.84;;;28.03;37.55
36502;BME280;25393;46.108;3.390;2023-03-13T12:01:02;96824.69;;;29.29;35.19
36502;BME280;25393;46.108;3.390;2023-03-13T12:06:31;96814.25;;;28.52;35.87
36502;BME280;25393;46.108;3.390;2023-03-13T12:12:03;96806.13;;;27.22;35.92
36502;BME280;25393;46.108;3.390;2023-03-13T12:14:47;96779.09;;;27.39;36.12
36502;BME280;25393;46.108;3.390;2023-03-13T12:17:27;96786.38;;;27.30;38.22
36502;BME280;25393;46.108;3.390;2023-03-13T12:20:07;96766.56;;;27.02;38.61
36502;BME280;25393;46.108;3.390;2023-03-13T12:22:43;96757.22;;;26.81;38.29
36502;BME280;25393;46.108;3.390;2023-03-13T12:25:16;96758.00;;;26.95;38.13
36502;BME280;25393;46.108;3.390;2023-03-13T12:27:51;96744.94;;;26.70;38.55
36502;BME280;25393;46.108;3.390;2023-03-13T12:30:38;96721.09;;;26.94;37.05
36502;BME280;25393;46.108;3.390;2023-03-13T12:33:25;96709.41;;;26.94;37.90
36502;BME280;25393;46.108;3.390;2023-03-13T12:36:03;96738.47;;;27.43;38.12
36502;BME280;25393;46.108;3.390;2023-03-13T12:38:45;96718.69;;;27.87;35.81
36502;BME280;25393;46.108;3.390;2023-03-13T12:41:22;96731.66;;;27.90;36.91
36502;BME280;25393;46.108;3.390;2023-03-13T12:43:52;96721.41;;;27.28;33.11
36502;BME280;25393;46.108;3.390;2023-03-13T12:46:35;96716.31;;;25.72;33.97
36502;BME280;25393;46.108;3.390;2023-03-13T12:49:06;96730.84;;;25.25;34.84
36502;BME280;25393;46.108;3.390;2023-03-13T12:54:28;96701.88;;;25.58;33.47
36502;BME280;25393;46.108;3.390;2023-03-13T13:00:02;96685.19;;;24.71;33.97
36502;BME280;25393;46.108;3.390;2023-03-13T13:02:33;96697.28;;;24.78;34.50
36502;BME280;25393;46.108;3.390;2023-03-13T13:05:01;96686.38;;;24.65;35.48
36502;BME280;25393;46.108;3.390;2023-03-13T13:07:32;96681.91;;;24.55;34.94
36502;BME280;25393;46.108;3.390;2023-03-13T13:12:45;96681.44;;;24.24;36.84
36502;BME280;25393;46.108;3.390;2023-03-13T13:15:19;96663.00;;;24.93;35.15
36502;BME280;25393;46.108;3.390;2023-03-13T13:18:00;96664.09;;;25.29;33.86
36502;BME280;25393;46.108;3.390;2023-03-13T13:20:44;96635.06;;;24.55;35.59
36502;BME280;25393;46.108;3.390;2023-03-13T13:23:21;96653.41;;;25.00;35.53
36502;BME280;25393;46.108;3.390;2023-03-13T13:25:48;96651.00;;;25.50;35.91
36502;BME280;25393;46.108;3.390;2023-03-13T13:30:44;96641.09;;;25.59;32.85
36502;BME280;25393;46.108;3.390;2023-03-13T13:35:45;96615.53;;;24.95;33.05
36502;BME280;25393;46.108;3.390;2023-03-13T13:43:31;96601.97;;;24.95;35.79
36502;BME280;25393;46.108;3.390;2023-03-13T13:48:45;96556.56;;;24.50;36.97
36502;BME280;25393;46.108;3.390;2023-03-13T13:53:45;96533.34;;;24.06;36.27
36502;BME280;25393;46.108;3.390;2023-03-13T14:02:23;96538.19;;;23.04;38.08
36502;BME280;25393;46.108;3.390;2023-03-13T14:10:31;96500.47;;;22.16;38.23
36502;BME280;25393;46.108;3.390;2023-03-13T14:13:00;96495.59;;;22.13;39.37
36502;BME280;25393;46.108;3.390;2023-03-13T14:15:30;96490.78;;;22.10;39.26
36502;BME280;25393;46.108;3.390;2023-03-13T14:17:59;96472.88;;;22.68;38.27
36502;BME280;25393;46.108;3.390;2023-03-13T14:20:36;96477.88;;;23.85;38.08
36502;BME280;25393;46.108;3.390;2023-03-13T14:23:08;96464.56;;;24.07;36.63
36502;BME280;25393;46.108;3.390;2023-03-13T14:25:48;96467.28;;;23.65;37.33
36502;BME280;25393;46.108;3.390;2023-03-13T14:28:26;96459.94;;;23.89;38.96
36502;BME280;25393;46.108;3.390;2023-03-13T14:30:56;96451.25;;;24.99;35.65
36502;BME280;25393;46.108;3.390;2023-03-13T14:33:24;96430.84;;;26.11;35.39
36502;BME280;25393;46.108;3.390;2023-03-13T14:35:54;96425.44;;;25.97;35.52
36502;BME280;25393;46.108;3.390;2023-03-13T14:38:24;96435.75;;;25.46;34.29
36502;BME280;25393;46.108;3.390;2023-03-13T14:40:53;96427.09;;;24.38;36.49
36502;BME280;25393;46.108;3.390;2023-03-13T14:43:34;96425.72;;;23.61;36.71
36502;BME280;25393;46.108;3.390;2023-03-13T14:46:13;96419.22;;;23.14;37.45
36502;BME280;25393;46.108;3.390;2023-03-13T14:48:41;96406.13;;;22.98;38.24